sensor_id;sensor_type;location;lat;lon;timestamp;P1;durP1;ratioP1;P2;durP2;ratioP2
23596;SDS011;40226;50.874;4.394;2022-08-21T00:00:42;14.60;;;3.28;;
23596;SDS011;40226;50.874;4.394;2022-08-21T00:03:09;14.38;;;3.90;;
23596;SDS011;40226;50.874;4.394;2022-08-21T00:05:37;9.68;;;3.40;;
23596;SDS011;40226;50.874;4.394;2022-08-21T00:08:05;12.77;;;3.53;;
23596;SDS011;40226;50.874;4.394;2022-08-21T00:10:31;12.98;;;3.65;;
23596;SDS011;40226;50.874;4.394;2022-08-21T00:12:57;11.68;;;3.67;;
23596;SDS011;40226;50.874;4.394;2022-08-21T00:15:26;13.07;;;4.18;;
23596;SDS011;40226;50.874;4.394;2022-08-21T00:17:54;11.73;;;4.25;;
23596;SDS011;40226;50.874;4.394;2022-08-21T00:20:20;10.88;;;4.43;;
23596;SDS011;40226;50.874;4.394;2022-08-21T00:22:48;7.90;;;3.60;;
23596;SDS011;40226;50.874;4.394;2022-08-21T00:25:15;11.82;;;3.53;;
23596;SDS011;40226;50.874;4.394;2022-08-21T00:27:41;9.82;;;3.28;;
23596;SDS011;40226;50.874;4.394;2022-08-21T00:30:08;12.85;;;3.50;;
23596;SDS011;40226;50.874;4.394;2022-08-21T00:32:36;13.68;;;3.88;;
23596;SDS011;40226;50.874;4.394;2022-08-21T00:35:03;10.85;;;3.55;;
23596;SDS011;40226;50.874;4.394;2022-08-21T00:37:30;11.77;;;4.00;;
23596;SDS011;40226;50.874;4.394;2022-08-21T00:39:55;10.20;;;3.70;;
23596;SDS011;40226;50.874;4.394;2022-08-21T00:42:21;7.97;;;3.70;;
23596;SDS011;40226;50.874;4.394;2022-08-21T00:44:47;13.45;;;3.85;;
23596;SDS011;40226;50.874;4.394;2022-08-21T00:47:14;12.52;;;3.50;;
23596;SDS011;40226;50.874;4.394;2022-08-21T00:49:40;11.02;;;3.78;;
23596;SDS011;40226;50.874;4.394;2022-08-21T00:52:09;11.77;;;3.63;;
23596;SDS011;40226;50.874;4.394;2022-08-21T00:54:39;10.13;;;3.22;;
23596;SDS011;40226;50.874;4.394;2022-08-21T00:57:07;13.07;;;3.60;;
23596;SDS011;40226;50.874;4.394;2022-08-21T00:59:41;13.93;;;3.65;;
23596;SDS011;40226;50.874;4.394;2022-08-21T01:02:10;11.55;;;3.40;;
23596;SDS011;40226;50.874;4.394;2022-08-21T01:04:36;9.02;;;3.40;;
23596;SDS011;40226;50.874;4.394;2022-08-21T01:07:02;9.57;;;3.47;;
23596;SDS011;40226;50.874;4.394;2022-08-21T01:09:29;12.57;;;3.55;;
23596;SDS011;40226;50.874;4.394;2022-08-21T01:11:55;10.32;;;3.30;;
23596;SDS011;40226;50.874;4.394;2022-08-21T01:14:20;9.95;;;3.28;;
23596;SDS011;40226;50.874;4.394;2022-08-21T01:16:47;14.93;;;3.50;;
23596;SDS011;40226;50.874;4.394;2022-08-21T01:19:15;10.02;;;3.25;;
23596;SDS011;40226;50.874;4.394;2022-08-21T01:21:43;11.07;;;3.30;;
23596;SDS011;40226;50.874;4.394;2022-08-21T01:24:08;15.10;;;3.88;;
23596;SDS011;40226;50.874;4.394;2022-08-21T01:26:35;9.77;;;3.70;;
23596;SDS011;40226;50.874;4.394;2022-08-21T01:29:02;10.10;;;3.08;;
23596;SDS011;40226;50.874;4.394;2022-08-21T01:34:01;10.38;;;3.28;;
23596;SDS011;40226;50.874;4.394;2022-08-21T01:36:28;9.98;;;3.22;;
23596;SDS011;40226;50.874;4.394;2022-08-21T01:38:53;10.88;;;3.42;;
23596;SDS011;40226;50.874;4.394;2022-08-21T01:41:19;15.23;;;3.53;;
23596;SDS011;40226;50.874;4.394;2022-08-21T01:43:45;12.23;;;2.92;;
23596;SDS011;40226;50.874;4.394;2022-08-21T01:46:11;10.88;;;3.08;;
23596;SDS011;40226;50.874;4.394;2022-08-21T01:48:37;9.57;;;3.20;;
23596;SDS011;40226;50.874;4.394;2022-08-21T01:51:05;10.80;;;3.50;;
23596;SDS011;40226;50.874;4.394;2022-08-21T01:53:32;11.05;;;3.20;;
23596;SDS011;40226;50.874;4.394;2022-08-21T01:56:00;8.55;;;3.03;;
23596;SDS011;40226;50.874;4.394;2022-08-21T01:58:26;11.73;;;2.90;;
23596;SDS011;40226;50.874;4.394;2022-08-21T02:00:52;7.63;;;2.90;;
23596;SDS011;40226;50.874;4.394;2022-08-21T02:03:18;11.27;;;3.60;;
23596;SDS011;40226;50.874;4.394;2022-08-21T02:05:43;10.00;;;3.10;;
23596;SDS011;40226;50.874;4.394;2022-08-21T02:08:09;12.27;;;3.65;;
23596;SDS011;40226;50.874;4.394;2022-08-21T02:10:35;15.40;;;3.10;;
23596;SDS011;40226;50.874;4.394;2022-08-21T02:13:01;12.15;;;3.17;;
23596;SDS011;40226;50.874;4.394;2022-08-21T02:15:27;11.30;;;3.25;;
23596;SDS011;40226;50.874;4.394;2022-08-21T02:17:55;10.82;;;3.20;;
23596;SDS011;40226;50.874;4.394;2022-08-21T02:22:52;12.02;;;3.13;;
23596;SDS011;40226;50.874;4.394;2022-08-21T02:25:18;9.63;;;3.22;;
23596;SDS011;40226;50.874;4.394;2022-08-21T02:27:45;11.82;;;3.50;;
23596;SDS011;40226;50.874;4.394;2022-08-21T02:30:17;9.77;;;3.15;;
23596;SDS011;40226;50.874;4.394;2022-08-21T02:32:45;12.52;;;3.53;;
23596;SDS011;40226;50.874;4.394;2022-08-21T02:35:10;12.38;;;3.45;;
23596;SDS011;40226;50.874;4.394;2022-08-21T02:37:47;10.05;;;3.22;;
23596;SDS011;40226;50.874;4.394;2022-08-21T02:40:17;5.50;;;3.13;;
23596;SDS011;40226;50.874;4.394;2022-08-21T02:42:44;7.80;;;2.85;;
23596;SDS011;40226;50.874;4.394;2022-08-21T02:45:10;12.40;;;2.97;;
23596;SDS011;40226;50.874;4.394;2022-08-21T02:47:37;8.77;;;3.17;;
23596;SDS011;40226;50.874;4.394;2022-08-21T02:50:03;12.82;;;3.53;;
23596;SDS011;40226;50.874;4.394;2022-08-21T02:52:31;15.23;;;3.40;;
23596;SDS011;40226;50.874;4.394;2022-08-21T02:54:58;10.98;;;3.08;;
23596;SDS011;40226;50.874;4.394;2022-08-21T02:57:24;10.73;;;2.92;;
23596;SDS011;40226;50.874;4.394;2022-08-21T02:59:50;8.65;;;3.08;;
23596;SDS011;40226;50.874;4.394;2022-08-21T03:02:15;10.43;;;3.35;;
23596;SDS011;40226;50.874;4.394;2022-08-21T03:04:41;8.38;;;2.75;;
23596;SDS011;40226;50.874;4.394;2022-08-21T03:07:06;7.97;;;2.67;;
23596;SDS011;40226;50.874;4.394;2022-08-21T03:09:32;11.38;;;2.97;;
23596;SDS011;40226;50.874;4.394;2022-08-21T03:11:57;10.32;;;3.47;;
23596;SDS011;40226;50.874;4.394;2022-08-21T03:14:23;12.38;;;2.97;;
23596;SDS011;40226;50.874;4.394;2022-08-21T03:16:48;8.98;;;3.00;;
23596;SDS011;40226;50.874;4.394;2022-08-21T03:19:14;13.68;;;3.53;;
23596;SDS011;40226;50.874;4.394;2022-08-21T03:21:40;8.60;;;3.10;;
23596;SDS011;40226;50.874;4.394;2022-08-21T03:24:06;11.18;;;2.83;;
23596;SDS011;40226;50.874;4.394;2022-08-21T03:26:31;14.43;;;2.72;;
23596;SDS011;40226;50.874;4.394;2022-08-21T03:28:57;10.70;;;3.30;;
23596;SDS011;40226;50.874;4.394;2022-08-21T03:31:23;9.13;;;3.00;;
23596;SDS011;40226;50.874;4.394;2022-08-21T03:33:53;9.63;;;3.50;;
23596;SDS011;40226;50.874;4.394;2022-08-21T03:36:21;11.77;;;2.95;;
23596;SDS011;40226;50.874;4.394;2022-08-21T03:38:46;9.43;;;3.17;;
23596;SDS011;40226;50.874;4.394;2022-08-21T03:41:12;11.15;;;2.60;;
23596;SDS011;40226;50.874;4.394;2022-08-21T03:43:38;11.93;;;3.17;;
23596;SDS011;40226;50.874;4.394;2022-08-21T03:46:03;8.25;;;2.88;;
23596;SDS011;40226;50.874;4.394;2022-08-21T03:48:31;10.13;;;3.15;;
23596;SDS011;40226;50.874;4.394;2022-08-21T03:50:57;12.73;;;2.42;;
23596;SDS011;40226;50.874;4.394;2022-08-21T03:53:23;12.00;;;2.75;;
23596;SDS011;40226;50.874;4.394;2022-08-21T03:55:50;10.55;;;2.70;;
23596;SDS011;40226;50.874;4.394;2022-08-21T03:58:18;8.82;;;2.63;;
23596;SDS011;40226;50.874;4.394;2022-08-21T04:00:46;9.57;;;2.42;;
23596;SDS011;40226;50.874;4.394;2022-08-21T04:03:13;8.50;;;3.20;;
23596;SDS011;40226;50.874;4.394;2022-08-21T04:05:40;8.88;;;3.35;;
23596;SDS011;40226;50.874;4.394;2022-08-21T04:08:06;12.25;;;2.92;;
23596;SDS011;40226;50.874;4.394;2022-08-21T04:10:32;13.30;;;2.97;;
23596;SDS011;40226;50.874;4.394;2022-08-21T04:13:00;7.93;;;2.63;;
23596;SDS011;40226;50.874;4.394;2022-08-21T04:15:26;7.20;;;2.90;;
23596;SDS011;40226;50.874;4.394;2022-08-21T04:17:53;10.40;;;3.10;;
23596;SDS011;40226;50.874;4.394;2022-08-21T04:20:20;8.10;;;3.08;;
23596;SDS011;40226;50.874;4.394;2022-08-21T04:22:46;16.67;;;3.17;;
23596;SDS011;40226;50.874;4.394;2022-08-21T04:25:14;8.88;;;2.90;;
23596;SDS011;40226;50.874;4.394;2022-08-21T04:27:40;9.10;;;2.63;;
23596;SDS011;40226;50.874;4.394;2022-08-21T04:30:06;8.80;;;3.25;;
23596;SDS011;40226;50.874;4.394;2022-08-21T04:32:34;11.20;;;2.88;;
23596;SDS011;40226;50.874;4.394;2022-08-21T04:35:01;7.93;;;3.30;;
23596;SDS011;40226;50.874;4.394;2022-08-21T04:37:28;14.13;;;3.42;;
23596;SDS011;40226;50.874;4.394;2022-08-21T04:39:55;7.93;;;2.88;;
23596;SDS011;40226;50.874;4.394;2022-08-21T04:42:23;12.43;;;3.25;;
23596;SDS011;40226;50.874;4.394;2022-08-21T04:44:52;10.00;;;3.65;;
23596;SDS011;40226;50.874;4.394;2022-08-21T04:47:18;12.88;;;3.72;;
23596;SDS011;40226;50.874;4.394;2022-08-21T04:49:44;11.52;;;3.50;;
23596;SDS011;40226;50.874;4.394;2022-08-21T04:52:11;8.23;;;3.20;;
23596;SDS011;40226;50.874;4.394;2022-08-21T04:54:38;11.32;;;3.58;;
23596;SDS011;40226;50.874;4.394;2022-08-21T04:57:05;10.80;;;3.00;;
23596;SDS011;40226;50.874;4.394;2022-08-21T04:59:38;8.77;;;3.10;;
23596;SDS011;40226;50.874;4.394;2022-08-21T05:02:10;9.43;;;3.40;;
23596;SDS011;40226;50.874;4.394;2022-08-21T05:04:38;13.02;;;3.78;;
23596;SDS011;40226;50.874;4.394;2022-08-21T05:07:11;13.68;;;3.88;;
23596;SDS011;40226;50.874;4.394;2022-08-21T05:09:42;11.93;;;3.10;;
23596;SDS011;40226;50.874;4.394;2022-08-21T05:12:07;8.93;;;2.63;;
23596;SDS011;40226;50.874;4.394;2022-08-21T05:14:33;13.48;;;3.45;;
23596;SDS011;40226;50.874;4.394;2022-08-21T05:16:59;12.38;;;3.65;;
23596;SDS011;40226;50.874;4.394;2022-08-21T05:19:24;15.30;;;3.88;;
23596;SDS011;40226;50.874;4.394;2022-08-21T05:21:50;10.55;;;3.10;;
23596;SDS011;40226;50.874;4.394;2022-08-21T05:24:16;10.45;;;3.60;;
23596;SDS011;40226;50.874;4.394;2022-08-21T05:26:42;9.70;;;3.35;;
23596;SDS011;40226;50.874;4.394;2022-08-21T05:29:09;9.40;;;3.85;;
23596;SDS011;40226;50.874;4.394;2022-08-21T05:31:35;9.30;;;3.30;;
23596;SDS011;40226;50.874;4.394;2022-08-21T05:34:02;9.10;;;3.10;;
23596;SDS011;40226;50.874;4.394;2022-08-21T05:36:28;10.32;;;3.40;;
23596;SDS011;40226;50.874;4.394;2022-08-21T05:38:54;14.93;;;3.58;;
23596;SDS011;40226;50.874;4.394;2022-08-21T05:41:20;12.68;;;3.63;;
23596;SDS011;40226;50.874;4.394;2022-08-21T05:43:45;9.32;;;3.33;;
23596;SDS011;40226;50.874;4.394;2022-08-21T05:46:11;11.38;;;3.30;;
23596;SDS011;40226;50.874;4.394;2022-08-21T05:48:36;13.93;;;3.30;;
23596;SDS011;40226;50.874;4.394;2022-08-21T05:51:11;10.40;;;3.33;;
23596;SDS011;40226;50.874;4.394;2022-08-21T05:53:38;8.45;;;3.13;;
23596;SDS011;40226;50.874;4.394;2022-08-21T05:56:05;11.38;;;3.47;;
23596;SDS011;40226;50.874;4.394;2022-08-21T05:58:31;13.73;;;3.60;;
23596;SDS011;40226;50.874;4.394;2022-08-21T06:00:58;9.73;;;3.53;;
23596;SDS011;40226;50.874;4.394;2022-08-21T06:03:26;9.00;;;3.63;;
23596;SDS011;40226;50.874;4.394;2022-08-21T06:05:53;14.68;;;3.25;;
23596;SDS011;40226;50.874;4.394;2022-08-21T06:08:20;11.68;;;3.83;;
23596;SDS011;40226;50.874;4.394;2022-08-21T06:10:47;11.43;;;3.40;;
23596;SDS011;40226;50.874;4.394;2022-08-21T06:13:14;14.13;;;3.50;;
23596;SDS011;40226;50.874;4.394;2022-08-21T06:15:41;11.52;;;3.42;;
23596;SDS011;40226;50.874;4.394;2022-08-21T06:18:07;10.60;;;3.70;;
23596;SDS011;40226;50.874;4.394;2022-08-21T06:20:33;11.27;;;3.33;;
23596;SDS011;40226;50.874;4.394;2022-08-21T06:22:59;10.70;;;3.20;;
23596;SDS011;40226;50.874;4.394;2022-08-21T06:25:25;13.25;;;3.50;;
23596;SDS011;40226;50.874;4.394;2022-08-21T06:27:51;8.38;;;3.03;;
23596;SDS011;40226;50.874;4.394;2022-08-21T06:30:17;11.63;;;3.85;;
23596;SDS011;40226;50.874;4.394;2022-08-21T06:32:43;10.38;;;3.20;;
23596;SDS011;40226;50.874;4.394;2022-08-21T06:35:09;9.10;;;3.33;;
23596;SDS011;40226;50.874;4.394;2022-08-21T06:37:35;9.93;;;3.50;;
23596;SDS011;40226;50.874;4.394;2022-08-21T06:40:01;11.50;;;3.60;;
23596;SDS011;40226;50.874;4.394;2022-08-21T06:42:28;9.68;;;3.00;;
23596;SDS011;40226;50.874;4.394;2022-08-21T06:44:53;10.10;;;3.25;;
23596;SDS011;40226;50.874;4.394;2022-08-21T06:47:19;10.82;;;3.22;;
23596;SDS011;40226;50.874;4.394;2022-08-21T06:49:45;11.25;;;4.00;;
23596;SDS011;40226;50.874;4.394;2022-08-21T06:52:11;9.23;;;3.17;;
23596;SDS011;40226;50.874;4.394;2022-08-21T06:54:37;8.93;;;3.00;;
23596;SDS011;40226;50.874;4.394;2022-08-21T06:57:03;9.18;;;3.03;;
23596;SDS011;40226;50.874;4.394;2022-08-21T06:59:29;8.25;;;3.03;;
23596;SDS011;40226;50.874;4.394;2022-08-21T07:01:56;12.07;;;3.28;;
23596;SDS011;40226;50.874;4.394;2022-08-21T07:04:22;10.32;;;3.50;;
23596;SDS011;40226;50.874;4.394;2022-08-21T07:06:48;8.07;;;2.95;;
23596;SDS011;40226;50.874;4.394;2022-08-21T07:09:14;11.38;;;3.50;;
23596;SDS011;40226;50.874;4.394;2022-08-21T07:11:39;9.10;;;3.10;;
23596;SDS011;40226;50.874;4.394;2022-08-21T07:14:05;11.63;;;3.38;;
23596;SDS011;40226;50.874;4.394;2022-08-21T07:16:31;14.73;;;3.17;;
23596;SDS011;40226;50.874;4.394;2022-08-21T07:18:56;12.50;;;3.22;;
23596;SDS011;40226;50.874;4.394;2022-08-21T07:21:22;13.30;;;3.67;;
23596;SDS011;40226;50.874;4.394;2022-08-21T07:23:49;13.32;;;3.50;;
23596;SDS011;40226;50.874;4.394;2022-08-21T07:26:18;12.43;;;3.17;;
23596;SDS011;40226;50.874;4.394;2022-08-21T07:28:46;12.52;;;3.13;;
23596;SDS011;40226;50.874;4.394;2022-08-21T07:31:14;14.65;;;3.00;;
23596;SDS011;40226;50.874;4.394;2022-08-21T07:33:42;9.38;;;3.17;;
23596;SDS011;40226;50.874;4.394;2022-08-21T07:36:08;11.70;;;3.13;;
23596;SDS011;40226;50.874;4.394;2022-08-21T07:38:34;10.88;;;3.47;;
23596;SDS011;40226;50.874;4.394;2022-08-21T07:41:00;14.77;;;3.25;;
23596;SDS011;40226;50.874;4.394;2022-08-21T07:43:27;9.75;;;3.05;;
23596;SDS011;40226;50.874;4.394;2022-08-21T07:45:53;14.48;;;3.22;;
23596;SDS011;40226;50.874;4.394;2022-08-21T07:48:20;11.07;;;2.88;;
23596;SDS011;40226;50.874;4.394;2022-08-21T07:50:46;8.13;;;2.80;;
23596;SDS011;40226;50.874;4.394;2022-08-21T07:53:12;13.50;;;2.75;;
23596;SDS011;40226;50.874;4.394;2022-08-21T07:55:39;12.85;;;3.13;;
23596;SDS011;40226;50.874;4.394;2022-08-21T07:58:05;13.90;;;3.35;;
23596;SDS011;40226;50.874;4.394;2022-08-21T08:00:31;10.90;;;3.05;;
23596;SDS011;40226;50.874;4.394;2022-08-21T08:02:57;12.63;;;3.45;;
23596;SDS011;40226;50.874;4.394;2022-08-21T08:05:24;7.40;;;2.80;;
23596;SDS011;40226;50.874;4.394;2022-08-21T08:07:52;9.63;;;2.90;;
23596;SDS011;40226;50.874;4.394;2022-08-21T08:10:18;7.53;;;2.80;;
23596;SDS011;40226;50.874;4.394;2022-08-21T08:12:44;9.50;;;2.63;;
23596;SDS011;40226;50.874;4.394;2022-08-21T08:15:12;13.27;;;2.88;;
23596;SDS011;40226;50.874;4.394;2022-08-21T08:17:42;13.27;;;3.08;;
23596;SDS011;40226;50.874;4.394;2022-08-21T08:20:09;8.95;;;2.78;;
23596;SDS011;40226;50.874;4.394;2022-08-21T08:22:35;9.70;;;3.03;;
23596;SDS011;40226;50.874;4.394;2022-08-21T08:25:03;11.57;;;3.15;;
23596;SDS011;40226;50.874;4.394;2022-08-21T08:27:29;12.77;;;2.95;;
23596;SDS011;40226;50.874;4.394;2022-08-21T08:29:55;11.35;;;2.92;;
23596;SDS011;40226;50.874;4.394;2022-08-21T08:32:21;10.32;;;2.22;;
23596;SDS011;40226;50.874;4.394;2022-08-21T08:34:47;12.20;;;2.72;;
23596;SDS011;40226;50.874;4.394;2022-08-21T08:37:13;12.50;;;2.97;;
23596;SDS011;40226;50.874;4.394;2022-08-21T08:39:41;13.10;;;2.85;;
23596;SDS011;40226;50.874;4.394;2022-08-21T08:42:08;14.10;;;3.30;;
23596;SDS011;40226;50.874;4.394;2022-08-21T08:44:38;11.20;;;2.63;;
23596;SDS011;40226;50.874;4.394;2022-08-21T08:47:03;9.48;;;2.63;;
23596;SDS011;40226;50.874;4.394;2022-08-21T08:49:32;9.73;;;2.67;;
23596;SDS011;40226;50.874;4.394;2022-08-21T08:52:07;13.68;;;2.80;;
23596;SDS011;40226;50.874;4.394;2022-08-21T08:57:43;9.82;;;2.40;;
23596;SDS011;40226;50.874;4.394;2022-08-21T09:00:12;13.18;;;2.80;;
23596;SDS011;40226;50.874;4.394;2022-08-21T09:02:39;9.77;;;2.50;;
23596;SDS011;40226;50.874;4.394;2022-08-21T09:05:06;7.55;;;2.35;;
23596;SDS011;40226;50.874;4.394;2022-08-21T09:07:40;11.90;;;2.80;;
23596;SDS011;40226;50.874;4.394;2022-08-21T09:13:24;9.18;;;2.80;;
23596;SDS011;40226;50.874;4.394;2022-08-21T09:24:27;8.95;;;2.67;;
23596;SDS011;40226;50.874;4.394;2022-08-21T09:27:02;11.50;;;2.63;;
23596;SDS011;40226;50.874;4.394;2022-08-21T09:29:33;8.07;;;2.40;;
23596;SDS011;40226;50.874;4.394;2022-08-21T09:32:08;11.85;;;2.95;;
23596;SDS011;40226;50.874;4.394;2022-08-21T09:34:42;12.30;;;2.45;;
23596;SDS011;40226;50.874;4.394;2022-08-21T09:37:19;9.13;;;2.38;;
23596;SDS011;40226;50.874;4.394;2022-08-21T09:39:44;12.18;;;2.70;;
23596;SDS011;40226;50.874;4.394;2022-08-21T09:42:10;10.52;;;2.25;;
23596;SDS011;40226;50.874;4.394;2022-08-21T09:44:38;7.97;;;2.30;;
23596;SDS011;40226;50.874;4.394;2022-08-21T09:47:08;10.95;;;2.15;;
23596;SDS011;40226;50.874;4.394;2022-08-21T09:49:39;10.88;;;2.53;;
23596;SDS011;40226;50.874;4.394;2022-08-21T09:52:27;15.10;;;2.75;;
23596;SDS011;40226;50.874;4.394;2022-08-21T09:54:52;12.20;;;2.72;;
23596;SDS011;40226;50.874;4.394;2022-08-21T09:57:27;14.25;;;2.70;;
23596;SDS011;40226;50.874;4.394;2022-08-21T10:00:47;8.50;;;2.53;;
23596;SDS011;40226;50.874;4.394;2022-08-21T10:03:07;10.15;;;2.45;;
23596;SDS011;40226;50.874;4.394;2022-08-21T10:05:36;10.48;;;2.72;;
23596;SDS011;40226;50.874;4.394;2022-08-21T10:08:03;9.00;;;2.45;;
23596;SDS011;40226;50.874;4.394;2022-08-21T10:10:31;12.77;;;2.65;;
23596;SDS011;40226;50.874;4.394;2022-08-21T10:20:46;9.38;;;3.85;;
23596;SDS011;40226;50.874;4.394;2022-08-21T10:23:20;14.85;;;2.85;;
23596;SDS011;40226;50.874;4.394;2022-08-21T10:26:05;12.73;;;2.60;;
23596;SDS011;40226;50.874;4.394;2022-08-21T10:31:52;11.73;;;4.22;;
23596;SDS011;40226;50.874;4.394;2022-08-21T10:43:02;11.82;;;2.75;;
23596;SDS011;40226;50.874;4.394;2022-08-21T10:50:51;12.40;;;2.83;;
23596;SDS011;40226;50.874;4.394;2022-08-21T10:53:33;10.82;;;2.40;;
23596;SDS011;40226;50.874;4.394;2022-08-21T10:56:23;12.73;;;2.67;;
23596;SDS011;40226;50.874;4.394;2022-08-21T11:01:56;13.13;;;3.00;;
23596;SDS011;40226;50.874;4.394;2022-08-21T11:04:40;11.73;;;2.63;;
23596;SDS011;40226;50.874;4.394;2022-08-21T11:07:35;15.45;;;3.10;;
23596;SDS011;40226;50.874;4.394;2022-08-21T11:10:26;10.40;;;2.72;;
23596;SDS011;40226;50.874;4.394;2022-08-21T11:13:03;10.13;;;2.58;;
23596;SDS011;40226;50.874;4.394;2022-08-21T11:18:17;6.15;;;2.08;;
23596;SDS011;40226;50.874;4.394;2022-08-21T11:29:24;11.70;;;2.58;;
23596;SDS011;40226;50.874;4.394;2022-08-21T11:51:32;11.48;;;2.63;;
23596;SDS011;40226;50.874;4.394;2022-08-21T11:57:02;9.93;;;2.42;;
23596;SDS011;40226;50.874;4.394;2022-08-21T11:59:42;7.38;;;2.03;;
23596;SDS011;40226;50.874;4.394;2022-08-21T12:02:33;11.98;;;2.78;;
23596;SDS011;40226;50.874;4.394;2022-08-21T12:05:06;14.18;;;2.95;;
23596;SDS011;40226;50.874;4.394;2022-08-21T12:07:46;12.00;;;3.45;;
23596;SDS011;40226;50.874;4.394;2022-08-21T12:10:17;13.80;;;3.20;;
23596;SDS011;40226;50.874;4.394;2022-08-21T12:12:46;10.90;;;3.03;;
23596;SDS011;40226;50.874;4.394;2022-08-21T12:17:58;7.65;;;2.10;;
23596;SDS011;40226;50.874;4.394;2022-08-21T12:23:02;10.50;;;3.28;;
23596;SDS011;40226;50.874;4.394;2022-08-21T12:28:23;8.27;;;2.10;;
23596;SDS011;40226;50.874;4.394;2022-08-21T12:30:50;13.63;;;3.28;;
23596;SDS011;40226;50.874;4.394;2022-08-21T12:33:21;9.88;;;2.63;;
23596;SDS011;40226;50.874;4.394;2022-08-21T12:35:50;8.52;;;2.38;;
23596;SDS011;40226;50.874;4.394;2022-08-21T12:38:22;8.77;;;2.17;;
23596;SDS011;40226;50.874;4.394;2022-08-21T12:41:00;7.35;;;2.00;;
23596;SDS011;40226;50.874;4.394;2022-08-21T12:43:41;7.72;;;2.22;;
23596;SDS011;40226;50.874;4.394;2022-08-21T12:46:17;8.73;;;1.92;;
23596;SDS011;40226;50.874;4.394;2022-08-21T12:48:51;7.53;;;2.37;;
23596;SDS011;40226;50.874;4.394;2022-08-21T12:51:26;8.38;;;2.55;;
23596;SDS011;40226;50.874;4.394;2022-08-21T12:53:57;10.43;;;2.65;;
23596;SDS011;40226;50.874;4.394;2022-08-21T12:56:28;10.63;;;2.70;;
23596;SDS011;40226;50.874;4.394;2022-08-21T13:04:07;9.27;;;2.58;;
23596;SDS011;40226;50.874;4.394;2022-08-21T13:06:45;10.80;;;2.72;;
23596;SDS011;40226;50.874;4.394;2022-08-21T13:09:15;10.07;;;2.70;;
23596;SDS011;40226;50.874;4.394;2022-08-21T13:11:50;9.88;;;2.60;;
23596;SDS011;40226;50.874;4.394;2022-08-21T13:14:31;11.43;;;2.92;;
23596;SDS011;40226;50.874;4.394;2022-08-21T13:19:29;11.07;;;2.38;;
23596;SDS011;40226;50.874;4.394;2022-08-21T13:21:55;9.45;;;2.58;;
23596;SDS011;40226;50.874;4.394;2022-08-21T13:24:23;12.38;;;2.72;;
23596;SDS011;40226;50.874;4.394;2022-08-21T13:26:52;8.18;;;2.50;;
23596;SDS011;40226;50.874;4.394;2022-08-21T13:29:20;9.10;;;2.83;;
23596;SDS011;40226;50.874;4.394;2022-08-21T13:31:52;8.65;;;2.53;;
23596;SDS011;40226;50.874;4.394;2022-08-21T13:34:24;9.30;;;2.28;;
23596;SDS011;40226;50.874;4.394;2022-08-21T13:36:54;9.02;;;2.40;;
23596;SDS011;40226;50.874;4.394;2022-08-21T13:39:23;13.48;;;2.70;;
23596;SDS011;40226;50.874;4.394;2022-08-21T13:41:51;8.10;;;2.53;;
23596;SDS011;40226;50.874;4.394;2022-08-21T13:44:23;9.05;;;2.95;;
23596;SDS011;40226;50.874;4.394;2022-08-21T13:46:52;10.10;;;2.97;;
23596;SDS011;40226;50.874;4.394;2022-08-21T13:49:19;9.00;;;2.53;;
23596;SDS011;40226;50.874;4.394;2022-08-21T13:51:51;8.40;;;2.72;;
23596;SDS011;40226;50.874;4.394;2022-08-21T13:54:51;11.40;;;2.40;;
23596;SDS011;40226;50.874;4.394;2022-08-21T13:57:16;10.60;;;2.45;;
23596;SDS011;40226;50.874;4.394;2022-08-21T13:59:43;8.07;;;1.95;;
23596;SDS011;40226;50.874;4.394;2022-08-21T14:02:18;7.50;;;2.47;;
23596;SDS011;40226;50.874;4.394;2022-08-21T14:04:57;8.98;;;2.35;;
23596;SDS011;40226;50.874;4.394;2022-08-21T14:07:33;8.40;;;2.20;;
23596;SDS011;40226;50.874;4.394;2022-08-21T14:10:22;8.18;;;2.60;;
23596;SDS011;40226;50.874;4.394;2022-08-21T14:12:49;8.88;;;2.53;;
23596;SDS011;40226;50.874;4.394;2022-08-21T14:15:17;10.93;;;2.75;;
23596;SDS011;40226;50.874;4.394;2022-08-21T14:17:47;11.70;;;3.35;;
23596;SDS011;40226;50.874;4.394;2022-08-21T14:20:25;8.52;;;2.60;;
23596;SDS011;40226;50.874;4.394;2022-08-21T14:23:01;8.55;;;2.20;;
23596;SDS011;40226;50.874;4.394;2022-08-21T14:25:29;12.07;;;3.10;;
23596;SDS011;40226;50.874;4.394;2022-08-21T14:28:03;9.23;;;2.58;;
23596;SDS011;40226;50.874;4.394;2022-08-21T14:30:38;11.27;;;2.90;;
23596;SDS011;40226;50.874;4.394;2022-08-21T14:33:11;7.57;;;2.50;;
23596;SDS011;40226;50.874;4.394;2022-08-21T14:35:41;10.85;;;2.75;;
23596;SDS011;40226;50.874;4.394;2022-08-21T14:38:11;12.68;;;2.75;;
23596;SDS011;40226;50.874;4.394;2022-08-21T14:43:07;13.75;;;2.67;;
23596;SDS011;40226;50.874;4.394;2022-08-21T14:45:33;8.13;;;2.72;;
23596;SDS011;40226;50.874;4.394;2022-08-21T14:48:01;8.30;;;2.70;;
23596;SDS011;40226;50.874;4.394;2022-08-21T14:50:27;12.20;;;2.83;;
23596;SDS011;40226;50.874;4.394;2022-08-21T14:52:53;9.63;;;2.35;;
23596;SDS011;40226;50.874;4.394;2022-08-21T14:55:19;9.15;;;2.80;;
23596;SDS011;40226;50.874;4.394;2022-08-21T14:57:45;6.38;;;2.42;;
23596;SDS011;40226;50.874;4.394;2022-08-21T15:00:13;8.38;;;2.60;;
23596;SDS011;40226;50.874;4.394;2022-08-21T15:02:43;8.18;;;2.50;;
23596;SDS011;40226;50.874;4.394;2022-08-21T15:05:09;10.10;;;2.80;;
23596;SDS011;40226;50.874;4.394;2022-08-21T15:07:35;10.50;;;2.67;;
23596;SDS011;40226;50.874;4.394;2022-08-21T15:10:03;5.93;;;1.90;;
23596;SDS011;40226;50.874;4.394;2022-08-21T15:12:29;9.63;;;2.15;;
23596;SDS011;40226;50.874;4.394;2022-08-21T15:14:55;9.30;;;2.47;;
23596;SDS011;40226;50.874;4.394;2022-08-21T15:17:21;9.10;;;2.90;;
23596;SDS011;40226;50.874;4.394;2022-08-21T15:19:46;9.75;;;2.60;;
23596;SDS011;40226;50.874;4.394;2022-08-21T15:22:12;11.13;;;3.10;;
23596;SDS011;40226;50.874;4.394;2022-08-21T15:24:37;8.30;;;2.47;;
23596;SDS011;40226;50.874;4.394;2022-08-21T15:27:03;10.13;;;2.88;;
23596;SDS011;40226;50.874;4.394;2022-08-21T15:29:32;10.45;;;2.78;;
23596;SDS011;40226;50.874;4.394;2022-08-21T15:31:58;10.18;;;2.80;;
23596;SDS011;40226;50.874;4.394;2022-08-21T15:34:27;11.60;;;3.55;;
23596;SDS011;40226;50.874;4.394;2022-08-21T15:36:55;10.15;;;2.17;;
23596;SDS011;40226;50.874;4.394;2022-08-21T15:39:21;10.30;;;2.60;;
23596;SDS011;40226;50.874;4.394;2022-08-21T15:41:47;10.43;;;2.70;;
23596;SDS011;40226;50.874;4.394;2022-08-21T15:44:14;8.02;;;2.33;;
23596;SDS011;40226;50.874;4.394;2022-08-21T15:46:41;9.93;;;2.80;;
23596;SDS011;40226;50.874;4.394;2022-08-21T15:49:07;10.07;;;3.10;;
23596;SDS011;40226;50.874;4.394;2022-08-21T15:51:33;11.38;;;2.72;;
23596;SDS011;40226;50.874;4.394;2022-08-21T15:53:59;11.70;;;2.80;;
23596;SDS011;40226;50.874;4.394;2022-08-21T15:56:35;12.55;;;3.03;;
23596;SDS011;40226;50.874;4.394;2022-08-21T15:59:04;9.57;;;2.70;;
23596;SDS011;40226;50.874;4.394;2022-08-21T16:01:32;9.32;;;2.90;;
23596;SDS011;40226;50.874;4.394;2022-08-21T16:04:00;8.40;;;2.83;;
23596;SDS011;40226;50.874;4.394;2022-08-21T16:06:27;10.27;;;2.95;;
23596;SDS011;40226;50.874;4.394;2022-08-21T16:08:52;11.40;;;2.63;;
23596;SDS011;40226;50.874;4.394;2022-08-21T16:11:18;9.38;;;2.97;;
23596;SDS011;40226;50.874;4.394;2022-08-21T16:13:44;12.48;;;3.40;;
23596;SDS011;40226;50.874;4.394;2022-08-21T16:16:11;10.88;;;3.17;;
23596;SDS011;40226;50.874;4.394;2022-08-21T16:18:40;9.35;;;2.63;;
23596;SDS011;40226;50.874;4.394;2022-08-21T16:21:06;10.60;;;3.20;;
23596;SDS011;40226;50.874;4.394;2022-08-21T16:23:32;13.05;;;3.03;;
23596;SDS011;40226;50.874;4.394;2022-08-21T16:25:59;10.77;;;3.67;;
23596;SDS011;40226;50.874;4.394;2022-08-21T16:28:30;11.55;;;3.78;;